Lack, Pennsylvania
Current Conditions -  °F | °C
As of 4:53 AM on Sunday 25 Jan 2015 (Local Time) from KAOO Reporting Station
Overcast Overcast  
Wind Chill: 23°   Ceiling: 1800
Heat Index: 34°   Visibility: 10mi
Dew Point: 29°   Wind: 17mph
Humidity: 82%   Direction: 290°WNW
Pressure: 29.67"   Gusts: 23mph
Location:  40.2561°N, 77.7747°W
Report Text: KAOO 250953Z AUTO 29015G20KT 10SM BKN018 OVC024 01/M02 A2967 RMK AO2 PK WND 28026/0936 SLP060 T00111017
Loading
Personal Weather Stations






























Interactive Weather Map New forecast layout! Learn more

10-Day Weather Forecast

Advertisements
Track Severe Weather on mobile